Airfield :







YOU CAN JOIN US ON...

 
LOGIN :

Register | Disclaimer

   EN    FR    IT 

 









Legend :    VFR   Marginal VFR   IFR   Intensive IFR   Very Intensive IFR
Visi :
Ceiling :
>= 8 km
>= 3000ft
5 to 8 km
1000 to 3000 ft
1500m to 5 km
500 to 1000 ft
800 to 1500m
200 to 500 ft
< 800m
< 200 ft
Symbols :   Thunderstorms  Fog  Heavy snow  Heavy precipitations  Wind > 20 kt







- Airport Elevation : 357 ft
- IATA code : YSJ


CYSJ - Saint John

CURRENT METAR :
  • 250100Z 19003KT 15SM FEW078 12/09 A2984 RMK AC2 SLP109

EXPIRED METARs :
  • 250000Z 20007KT 15SM SCT085 15/10 A2983 RMK AC3 SLP102 DENSITY ALT 600FT
  • 242300Z 21008KT 15SM SCT093 17/10 A2980 RMK AC4 SLP094 DENSITY ALT 900FT

TAF TAF CYSJ
Valid from the 25 at 00:00 until the 25 at 12:00 UTC


242338Z 2500/2512 21008KT P6SM SCT090
BECMG 2500/2502 35008KT
BECMG 2504/2506 VRB03KT RMK NXT FCST BY 250600Z
CZQM FIR / North America



MET'MAP, your aeronautical weather chart ! - Copyright ORBIFLY December 2007 - Disclaimer

ORBIFLY MET'MAP TEAM :

Programming & Development : Alexandra Zaïnal
Concept & Development : Baudouin d'Aumeries
Co-Development & Prog : Marc-Olivier Méhu
Technical & hardware support : Manuel Goepfert

Contact : metmap@orbifly.com




SOURCES & CREDITS :

   NOAA